Aviation Digital Data Service (ADDS)

Output produced by METARs form (2230 UTC 04 July 2015)
found at http://aviationweather.gov/adds/metars/
 
KMSS 041736Z 0418/0518 VRB03KT P6SM SCT090 SCT150 
     FM050200 00000KT P6SM FEW090 FEW150 
     FM051400 25007KT P6SM FEW070